Time;durP1;ratioP1;P1;durP2;ratioP2;P2;SDS_P1;SDS_P2;PMS_P1;PMS_P2;Temp;Humidity;BMP_temperature;BMP_pressure;BME280_temperature;BME280_humidity;BME280_pressure;Samples;Min_cycle;Max_cycle;Signal;HPM_P1;HPM_P2
2021/10/27 00:01:22;;;;;;;;;;;;;;;8.64;65.64;99023.64;1685389;84;24749;-85
2021/10/27 00:03:49;;;;;;;;;;;;;;;8.66;65.68;99028.33;1682456;84;21956;-85
2021/10/27 00:06:15;;;;;;;;;;;;;;;8.66;65.71;99032.24;1679586;84;26048;-85
2021/10/27 00:08:42;;;;;;;;;;;;;;;8.66;65.72;99027.88;1680423;84;24446;-85
2021/10/27 00:11:08;;;;;;;;;;;;;;;8.66;65.75;99027.02;1681250;84;20455;-86
2021/10/27 00:13:34;;;;;;;;;;;;;;;8.65;65.77;99022.27;1681353;84;24758;-87
2021/10/27 00:16:02;;;;;;;;;;;;;;;8.65;65.75;99022.72;1682242;84;21984;-87
2021/10/27 00:18:28;;;;;;;;;;;;;;;8.60;65.76;99020.82;1654620;85;25906;-87
2021/10/27 00:20:54;;;;;;;;;;;;;;;8.57;65.75;99024.41;1680329;84;24523;-86
2021/10/27 00:23:20;;;;;;;;;;;;;;;8.50;65.76;99015.70;1681314;84;20874;-86
2021/10/27 00:25:49;;;;;;;;;;;;;;;8.47;65.77;99017.16;1692803;84;20816;-86
2021/10/27 00:28:15;;;;;;;;;;;;;;;8.44;65.78;99016.87;1689302;84;22106;-82
2021/10/27 00:30:41;;;;;;;;;;;;;;;8.38;65.79;99012.81;1681871;84;21060;-82
2021/10/27 00:33:07;;;;;;;;;;;;;;;8.32;65.80;99014.42;1676570;84;20260;-85
2021/10/27 00:35:34;;;;;;;;;;;;;;;8.27;65.84;99017.70;1681078;84;20781;-85
2021/10/27 00:38:00;;;;;;;;;;;;;;;8.20;65.84;99015.47;1679265;84;24862;-86
2021/10/27 00:40:26;;;;;;;;;;;;;;;8.13;65.86;99013.62;1678728;85;22130;-83
2021/10/27 00:42:53;;;;;;;;;;;;;;;8.13;65.90;99006.30;1687363;83;21047;-81
2021/10/27 00:45:18;;;;;;;;;;;;;;;8.14;65.95;99011.88;1685646;84;24447;-83
2021/10/27 00:47:44;;;;;;;;;;;;;;;8.13;66.00;99017.54;1677959;84;20266;-83
2021/10/27 00:50:10;;;;;;;;;;;;;;;8.13;66.04;99014.12;1681368;83;20293;-82
2021/10/27 00:52:36;;;;;;;;;;;;;;;8.13;66.09;99014.12;1685192;83;22138;-83
2021/10/27 00:55:03;;;;;;;;;;;;;;;8.10;66.16;99016.86;1678778;84;20915;-81
2021/10/27 00:57:29;;;;;;;;;;;;;;;8.09;66.20;99024.30;1677439;84;24267;-81
2021/10/27 00:59:55;;;;;;;;;;;;;;;8.06;66.22;99020.55;1680421;83;20825;-81
2021/10/27 01:02:21;;;;;;;;;;;;;;;8.05;66.24;99022.77;1677386;84;25555;-81
2021/10/27 01:04:48;;;;;;;;;;;;;;;8.06;66.31;99020.55;1683406;84;20194;-83
2021/10/27 01:07:14;;;;;;;;;;;;;;;8.06;66.34;99011.43;1685223;83;26010;-84
2021/10/27 01:09:41;;;;;;;;;;;;;;;8.04;66.38;99009.35;1679436;84;25101;-85
2021/10/27 01:12:08;;;;;;;;;;;;;;;8.03;66.40;99008.95;1679363;84;20256;-85
2021/10/27 01:14:36;;;;;;;;;;;;;;;8.00;66.43;99011.28;1682009;83;24900;-86
2021/10/27 01:17:03;;;;;;;;;;;;;;;7.97;66.46;99008.35;1685542;84;22002;-86
2021/10/27 01:19:31;;;;;;;;;;;;;;;7.91;66.49;99012.56;1685224;83;26152;-86
2021/10/27 01:21:58;;;;;;;;;;;;;;;7.87;66.52;99018.85;1685184;83;25257;-85
2021/10/27 01:24:25;;;;;;;;;;;;;;;7.85;66.56;99019.41;1613391;88;20150;-85
2021/10/27 01:26:51;;;;;;;;;;;;;;;7.79;66.60;99020.16;1687590;84;20453;-81
2021/10/27 01:29:17;;;;;;;;;;;;;;;7.81;66.64;99028.73;1685799;83;20279;-81
2021/10/27 01:31:43;;;;;;;;;;;;;;;7.80;66.67;99027.07;1683919;84;21572;-81
2021/10/27 01:34:09;;;;;;;;;;;;;;;7.79;66.72;99022.77;1684233;84;21254;-85
2021/10/27 01:36:35;;;;;;;;;;;;;;;7.80;66.78;99019.25;1685862;83;20263;-85
2021/10/27 01:39:01;;;;;;;;;;;;;;;7.76;66.83;99028.11;1683422;83;24810;-82
2021/10/27 01:41:27;;;;;;;;;;;;;;;7.78;66.88;99031.04;1678380;85;20320;-85
2021/10/27 01:43:57;;;;;;;;;;;;;;;7.74;66.90;99034.73;1690613;83;26236;-84
2021/10/27 01:46:27;;;;;;;;;;;;;;;7.75;66.95;99040.75;1679333;85;24598;-80
2021/10/27 01:48:58;;;;;;;;;;;;;;;7.77;66.98;99042.38;1677923;83;20373;-81
2021/10/27 01:51:25;;;;;;;;;;;;;;;7.77;67.02;99038.92;1679693;84;24779;-81
2021/10/27 01:53:51;;;;;;;;;;;;;;;7.76;67.05;99040.69;1677203;83;22154;-83
2021/10/27 01:56:17;;;;;;;;;;;;;;;7.74;67.08;99049.51;1681613;84;26061;-82
2021/10/27 01:58:43;;;;;;;;;;;;;;;7.73;67.10;99056.48;1678866;84;20855;-85
2021/10/27 02:01:09;;;;;;;;;;;;;;;7.72;67.14;99051.33;1678360;84;20794;-83
2021/10/27 02:03:35;;;;;;;;;;;;;;;7.73;67.16;99057.78;1678427;84;20222;-83
2021/10/27 02:06:04;;;;;;;;;;;;;;;7.78;67.20;99054.49;1679103;85;21515;-83
2021/10/27 02:08:30;;;;;;;;;;;;;;;7.77;67.23;99058.01;1680250;83;26015;-83
2021/10/27 02:10:57;;;;;;;;;;;;;;;7.74;67.27;99054.72;1677125;84;23879;-83
2021/10/27 02:13:22;;;;;;;;;;;;;;;7.72;67.29;99054.78;1679471;83;20229;-81
2021/10/27 02:15:49;;;;;;;;;;;;;;;7.70;67.31;99056.61;1678628;84;20230;-85
2021/10/27 02:18:15;;;;;;;;;;;;;;;7.68;67.35;99049.34;1679347;84;22049;-85
2021/10/27 02:20:42;;;;;;;;;;;;;;;7.68;67.39;99052.41;1679701;85;21048;-83
2021/10/27 02:23:08;;;;;;;;;;;;;;;7.65;67.41;99052.08;1680051;84;24539;-85
2021/10/27 02:25:35;;;;;;;;;;;;;;;7.61;67.45;99051.00;1680197;84;20458;-85
2021/10/27 02:28:00;;;;;;;;;;;;;;;7.54;67.49;99050.45;1680724;84;25361;-86
2021/10/27 02:30:28;;;;;;;;;;;;;;;7.52;67.54;99049.24;1681382;84;20773;-86
2021/10/27 02:32:54;;;;;;;;;;;;;;;7.49;67.62;99055.03;1677384;85;26008;-85
2021/10/27 02:35:22;;;;;;;;;;;;;;;7.47;67.69;99049.89;1677941;84;20819;-81
2021/10/27 02:37:48;;;;;;;;;;;;;;;7.46;67.74;99056.04;1677249;83;20238;-85
2021/10/27 02:40:16;;;;;;;;;;;;;;;7.44;67.78;99055.71;1679460;84;24955;-82
2021/10/27 02:42:46;;;;;;;;;;;;;;;7.43;67.86;99056.63;1678142;84;22723;-82
2021/10/27 02:45:13;;;;;;;;;;;;;;;7.43;67.92;99058.77;1672725;85;26201;-82
2021/10/27 02:47:42;;;;;;;;;;;;;;;7.38;67.99;99059.45;1680590;84;24622;-82
2021/10/27 02:50:08;;;;;;;;;;;;;;;7.41;68.04;99067.59;1683603;83;20274;-82
2021/10/27 02:52:34;;;;;;;;;;;;;;;7.39;68.09;99062.90;1681732;84;25377;-83
2021/10/27 02:55:01;;;;;;;;;;;;;;;7.40;68.15;99071.10;1677955;84;20240;-83
2021/10/27 02:57:27;;;;;;;;;;;;;;;7.41;68.20;99062.38;1680349;84;26004;-84
2021/10/27 02:59:53;;;;;;;;;;;;;;;7.42;68.27;99059.68;1676842;84;24510;-85
2021/10/27 03:02:22;;;;;;;;;;;;;;;7.42;68.33;99062.73;1670141;85;20314;-86
2021/10/27 03:04:48;;;;;;;;;;;;;;;7.41;68.39;99054.56;1677504;85;25394;-86
2021/10/27 03:07:14;;;;;;;;;;;;;;;7.38;68.42;99054.23;1679823;84;20372;-86
2021/10/27 03:09:40;;;;;;;;;;;;;;;7.36;68.45;99060.45;1675414;84;26002;-83
2021/10/27 03:12:06;;;;;;;;;;;;;;;7.34;68.51;99059.21;1683942;85;20875;-83
2021/10/27 03:14:32;;;;;;;;;;;;;;;7.38;68.55;99059.45;1683753;84;20255;-83
2021/10/27 03:16:58;;;;;;;;;;;;;;;7.38;68.60;99059.91;1681780;84;20204;-83
2021/10/27 03:19:24;;;;;;;;;;;;;;;7.38;68.64;99062.05;1679788;85;21984;-86
2021/10/27 03:21:50;;;;;;;;;;;;;;;7.37;68.68;99060.81;1680557;84;21550;-86
2021/10/27 03:24:16;;;;;;;;;;;;;;;7.36;68.71;99066.96;1680326;84;20241;-85
2021/10/27 03:26:43;;;;;;;;;;;;;;;7.36;68.77;99063.05;1685489;85;20329;-85
2021/10/27 03:29:09;;;;;;;;;;;;;;;7.33;68.80;99067.94;1685405;83;24777;-81
2021/10/27 03:31:35;;;;;;;;;;;;;;;7.29;68.81;99065.09;1685491;84;22193;-85
2021/10/27 03:34:01;;;;;;;;;;;;;;;7.26;68.85;99062.61;1682457;84;25979;-84
2021/10/27 03:36:27;;;;;;;;;;;;;;;7.24;68.89;99064.92;1685942;83;20219;-85
2021/10/27 03:38:53;;;;;;;;;;;;;;;7.22;68.92;99063.68;1679840;84;20307;-85
2021/10/27 03:41:19;;;;;;;;;;;;;;;7.19;68.96;99066.89;1700250;83;20224;-86
2021/10/27 03:43:45;;;;;;;;;;;;;;;7.17;68.99;99073.91;1684972;84;22008;-82
2021/10/27 03:46:11;;;;;;;;;;;;;;;7.14;69.03;99073.16;1685698;84;21064;-82
2021/10/27 03:48:40;;;;;;;;;;;;;;;7.12;69.07;99078.88;1685544;85;24827;-86
2021/10/27 03:51:09;;;;;;;;;;;;;;;7.09;69.09;99078.19;1685490;84;20592;-81
2021/10/27 03:53:35;;;;;;;;;;;;;;;7.06;69.15;99080.45;1679918;83;24933;-86
2021/10/27 03:56:01;;;;;;;;;;;;;;;7.02;69.18;99081.52;1685453;85;21940;-85
2021/10/27 03:58:30;;;;;;;;;;;;;;;7.02;69.23;99080.22;1684190;84;20873;-85
2021/10/27 04:01:00;;;;;;;;;;;;;;;7.01;69.27;99078.52;1680182;84;24479;-85
2021/10/27 04:03:29;;;;;;;;;;;;;;;7.02;69.33;99074.16;1682114;83;20479;-84
2021/10/27 04:05:56;;;;;;;;;;;;;;;7.01;69.38;99079.82;1678979;84;24748;-86
2021/10/27 04:08:25;;;;;;;;;;;;;;;7.00;69.42;99078.13;1680206;84;22898;-86
2021/10/27 04:10:51;;;;;;;;;;;;;;;7.01;69.49;99082.88;1679813;85;25953;-85
2021/10/27 04:13:18;;;;;;;;;;;;;;;6.97;69.52;99082.19;1680718;85;24512;-85
2021/10/27 04:15:47;;;;;;;;;;;;;;;6.95;69.54;99082.70;1629104;87;20230;-85
2021/10/27 04:18:13;;;;;;;;;;;;;;;6.97;69.61;99085.24;1628245;87;24915;-85
2021/10/27 04:20:40;;;;;;;;;;;;;;;6.96;69.64;99082.25;1649828;86;22153;-85
2021/10/27 04:23:07;;;;;;;;;;;;;;;6.95;69.67;99082.70;1649718;86;26050;-85
2021/10/27 04:25:33;;;;;;;;;;;;;;;6.95;69.72;99077.49;1654680;86;25204;-86
2021/10/27 04:27:59;;;;;;;;;;;;;;;6.94;69.77;99073.20;1648849;86;20842;-85
2021/10/27 04:30:25;;;;;;;;;;;;;;;6.92;69.82;99073.74;1651686;86;24821;-84
2021/10/27 04:32:52;;;;;;;;;;;;;;;6.85;69.85;99073.62;1649182;86;22159;-81
2021/10/27 04:35:19;;;;;;;;;;;;;;;6.83;69.87;99075.43;1652203;86;21200;-81
2021/10/27 04:37:46;;;;;;;;;;;;;;;6.78;69.92;99078.70;1662607;85;25193;-81
2021/10/27 04:40:16;;;;;;;;;;;;;;;6.76;69.93;99078.39;1651595;86;20514;-85
2021/10/27 04:42:42;;;;;;;;;;;;;;;6.74;69.99;99083.66;1652125;85;24877;-86
2021/10/27 04:45:11;;;;;;;;;;;;;;;6.74;70.03;99084.95;1624264;87;22023;-86
2021/10/27 04:47:37;;;;;;;;;;;;;;;6.76;70.05;99094.84;1661902;84;25998;-85
2021/10/27 04:50:07;;;;;;;;;;;;;;;6.76;70.12;99097.45;1658026;85;24465;-85
2021/10/27 04:52:34;;;;;;;;;;;;;;;6.77;70.16;99098.27;1651298;85;20481;-85
2021/10/27 04:55:00;;;;;;;;;;;;;;;6.78;70.21;99105.16;1649622;84;24662;-82
2021/10/27 04:57:26;;;;;;;;;;;;;;;6.80;70.24;99105.95;1653597;85;20916;-81
2021/10/27 04:59:52;;;;;;;;;;;;;;;6.80;70.29;99105.50;1650763;85;26049;-80
2021/10/27 05:02:19;;;;;;;;;;;;;;;6.79;70.33;99107.70;1656154;84;20780;-81
2021/10/27 05:04:45;;;;;;;;;;;;;;;6.80;70.35;99114.60;1672226;84;20242;-81
2021/10/27 05:07:14;;;;;;;;;;;;;;;6.79;70.37;99120.71;1668394;84;24820;-81
2021/10/27 05:09:41;;;;;;;;;;;;;;;6.80;70.41;99116.36;1655533;85;22103;-81
2021/10/27 05:12:07;;;;;;;;;;;;;;;6.83;70.43;99122.26;1658605;85;26674;-81
2021/10/27 05:14:38;;;;;;;;;;;;;;;6.81;70.44;99121.50;1681561;83;20853;-82
2021/10/27 05:17:10;;;;;;;;;;;;;;;6.79;70.49;99123.77;1657419;85;20226;-82
2021/10/27 05:19:34;;;;;;;;;;;;;;;6.80;70.51;99124.16;1658590;85;24867;-82
2021/10/27 05:22:00;;;;;;;;;;;;;;;6.80;70.53;99119.80;1659005;85;22002;-83
2021/10/27 05:24:26;;;;;;;;;;;;;;;6.78;70.55;99123.38;1657196;84;26058;-82
2021/10/27 05:26:52;;;;;;;;;;;;;;;6.76;70.58;99128.66;1602962;87;20297;-82
2021/10/27 05:29:20;;;;;;;;;;;;;;;6.76;70.61;99127.36;1632931;86;20570;-82
2021/10/27 05:31:49;;;;;;;;;;;;;;;6.75;70.64;99130.87;1655961;85;24876;-82
2021/10/27 05:34:15;;;;;;;;;;;;;;;6.74;70.66;99133.08;1648173;85;22043;-85
2021/10/27 05:36:42;;;;;;;;;;;;;;;6.74;70.70;99131.77;1654022;85;21042;-83
2021/10/27 05:39:13;;;;;;;;;;;;;;;6.73;70.72;99136.58;1660034;85;25276;-84
2021/10/27 05:41:42;;;;;;;;;;;;;;;6.71;70.74;99137.94;1659891;84;20286;-86
2021/10/27 05:44:09;;;;;;;;;;;;;;;6.74;70.79;99146.08;1661151;85;25429;-87
2021/10/27 05:46:36;;;;;;;;;;;;;;;6.73;70.82;99144.38;1654975;84;22002;-87
2021/10/27 05:56:59;;;;;;;;;;;;;;;6.79;70.96;99148.02;1662216;85;25625;-84
2021/10/27 05:59:24;;;;;;;;;;;;;;;6.78;71.00;99154.13;1645651;85;20261;-84
2021/10/27 06:01:51;;;;;;;;;;;;;;;6.77;71.03;99156.79;1653599;85;21144;-84
2021/10/27 06:04:17;;;;;;;;;;;;;;;6.77;71.05;99155.03;1659414;84;24389;-83
2021/10/27 06:06:45;;;;;;;;;;;;;;;6.75;71.08;99156.03;1660507;84;20441;-82
2021/10/27 06:09:12;;;;;;;;;;;;;;;6.73;71.11;99166.49;1658701;85;24760;-86
2021/10/27 06:11:38;;;;;;;;;;;;;;;6.75;71.15;99165.13;1642079;84;22114;-84
2021/10/27 06:14:04;;;;;;;;;;;;;;;6.76;71.20;99166.83;1659399;84;25995;-84
2021/10/27 06:16:31;;;;;;;;;;;;;;;6.78;71.26;99176.70;1659865;84;24465;-84
2021/10/27 06:18:58;;;;;;;;;;;;;;;6.80;71.29;99174.44;1660203;84;20458;-84
2021/10/27 06:21:24;;;;;;;;;;;;;;;6.81;71.34;99170.08;1657527;84;24885;-83
2021/10/27 06:23:50;;;;;;;;;;;;;;;6.81;71.38;99169.63;1646737;86;22127;-81
2021/10/27 06:26:21;;;;;;;;;;;;;;;6.82;71.42;99166.09;1605631;89;26188;-81
2021/10/27 06:31:46;;;;;;;;;;;;;;;6.92;71.50;99171.31;1634019;85;20223;-83
2021/10/27 06:45:54;;;;;;;;;;;;;;;7.03;71.63;99178.20;1657432;85;26736;-83
2021/10/27 06:46:59;;;;;;;;;;;;;;;7.15;71.71;99188.50;1613131;86;25580;-82
2021/10/27 06:49:26;;;;;;;;;;;;;;;7.17;71.76;99185.84;1626080;86;20249;-82
2021/10/27 06:51:52;;;;;;;;;;;;;;;7.21;71.81;99187.38;1622566;88;26054;-86
2021/10/27 06:54:18;;;;;;;;;;;;;;;7.27;71.82;99190.57;1622077;87;24588;-86
2021/10/27 06:56:44;;;;;;;;;;;;;;;7.34;71.85;99189.84;1622032;88;20271;-86
2021/10/27 06:59:14;;;;;;;;;;;;;;;7.37;71.89;99185.79;1624161;86;25403;-86
2021/10/27 07:04:32;;;;;;;;;;;;;;;7.43;71.92;99177.70;1595983;89;26056;-86
2021/10/27 07:15:00;;;;;;;;;;;;;;;7.63;72.02;99178.97;1618018;88;22565;-86
2021/10/27 07:17:26;;;;;;;;;;;;;;;7.70;72.07;99188.17;1619583;87;26852;-87
2021/10/27 07:19:52;;;;;;;;;;;;;;;7.76;72.08;99189.19;1616788;88;24452;-85
2021/10/27 07:22:18;;;;;;;;;;;;;;;7.81;72.11;99191.58;1616723;88;20295;-85
2021/10/27 07:24:44;;;;;;;;;;;;;;;7.87;72.14;99192.14;1617406;87;25408;-85
2021/10/27 07:27:11;;;;;;;;;;;;;;;7.92;72.16;99191.47;1620339;88;21987;-85
2021/10/27 07:29:38;;;;;;;;;;;;;;;8.02;72.17;99194.97;1617142;87;26137;-85
2021/10/27 07:32:06;;;;;;;;;;;;;;;8.10;72.21;99197.58;1615357;87;24595;-85
2021/10/27 07:34:41;;;;;;;;;;;;;;;8.18;72.22;99191.52;1622287;87;20299;-85
2021/10/27 07:39:54;;;;;;;;;;;;;;;8.36;72.26;99194.59;1620549;88;21998;-85
2021/10/27 07:42:18;;;;;;;;;;;;;;;8.45;72.26;99193.77;1622531;86;26109;-83
2021/10/27 07:44:44;;;;;;;;;;;;;;;8.54;72.30;99190.24;1615995;88;20905;-83
2021/10/27 07:47:11;;;;;;;;;;;;;;;8.64;72.31;99186.25;1604931;87;20272;-86
2021/10/27 07:49:38;;;;;;;;;;;;;;;8.74;72.29;99174.42;1622934;86;25560;-86
2021/10/27 07:52:05;;;;;;;;;;;;;;;8.85;72.29;99176.48;1604773;88;22034;-83
2021/10/27 07:54:32;;;;;;;;;;;;;;;8.93;72.28;99179.56;1624074;86;26052;-87
2021/10/27 07:56:59;;;;;;;;;;;;;;;9.02;72.27;99179.55;1626422;87;24648;-87
2021/10/27 07:59:25;;;;;;;;;;;;;;;9.10;72.24;99176.09;1621966;87;20245;-86
2021/10/27 08:01:50;;;;;;;;;;;;;;;9.17;72.22;99174.82;1624146;87;20296;-87
2021/10/27 08:04:17;;;;;;;;;;;;;;;9.21;72.16;99170.69;1625534;87;20295;-86
2021/10/27 08:06:44;;;;;;;;;;;;;;;9.31;72.12;99172.80;1622465;87;25998;-87
2021/10/27 08:09:11;;;;;;;;;;;;;;;9.40;72.09;99173.62;1656060;86;24421;-85
2021/10/27 08:11:37;;;;;;;;;;;;;;;9.46;72.07;99171.98;1656724;85;20251;-84
2021/10/27 08:14:03;;;;;;;;;;;;;;;9.54;72.04;99178.51;1656011;86;24742;-86
2021/10/27 08:16:29;;;;;;;;;;;;;;;9.62;71.99;99180.23;1597009;88;22038;-86
2021/10/27 08:18:55;;;;;;;;;;;;;;;9.71;71.96;99181.48;1624866;87;26057;-82
2021/10/27 08:21:22;;;;;;;;;;;;;;;9.77;71.89;99181.16;1654881;85;24516;-82
2021/10/27 08:23:48;;;;;;;;;;;;;;;9.83;71.86;99187.36;1652345;86;20323;-83
2021/10/27 08:26:20;;;;;;;;;;;;;;;9.91;71.80;99188.26;1654001;85;24816;-83
2021/10/27 08:28:56;;;;;;;;;;;;;;;10.01;71.73;99180.28;1658853;84;22160;-82
2021/10/27 08:31:38;;;;;;;;;;;;;;;10.09;71.69;99186.75;1653143;86;26011;-85
2021/10/27 08:34:14;;;;;;;;;;;;;;;10.16;71.64;99187.72;1655757;85;24596;-87
2021/10/27 08:36:38;;;;;;;;;;;;;;;10.24;71.58;99189.49;1654477;85;20256;-83
2021/10/27 08:39:05;;;;;;;;;;;;;;;10.30;71.51;99189.15;1657543;85;20253;-83
2021/10/27 08:41:36;;;;;;;;;;;;;;;10.38;71.45;99191.70;1658807;85;21997;-82
2021/10/27 08:44:02;;;;;;;;;;;;;;;10.47;71.36;99195.58;1587057;88;26806;-83
2021/10/27 08:46:33;;;;;;;;;;;;;;;10.56;71.30;99195.50;1622664;86;25383;-83
2021/10/27 08:49:00;;;;;;;;;;;;;;;10.63;71.24;99195.53;1637548;86;20154;-82
2021/10/27 08:51:28;;;;;;;;;;;;;;;10.70;71.18;99199.47;1597013;88;24869;-86
2021/10/27 08:54:00;;;;;;;;;;;;;;;10.75;71.11;99194.34;1597827;87;22100;-86
2021/10/27 08:56:27;;;;;;;;;;;;;;;10.84;71.06;99187.73;1598472;88;26099;-86
2021/10/27 08:59:03;;;;;;;;;;;;;;;10.93;71.00;99192.42;1619569;88;24636;-86
2021/10/27 09:02:20;;;;;;;;;;;;;;;10.99;70.96;99189.44;1613736;87;20303;-86
2021/10/27 09:06:51;;;;;;;;;;;;;;;11.12;70.79;99195.65;1617817;87;22036;-82
2021/10/27 09:34:05;;;;;;;;;;;;;;;11.88;70.09;99192.75;1610877;88;22089;-82
2021/10/27 09:36:45;;;;;;;;;;;;;;;11.98;70.04;99197.31;1610861;87;27164;-82
2021/10/27 10:06:24;;;;;;;;;;;;;;;12.81;69.14;99187.05;1682231;83;24489;-82
2021/10/27 10:08:52;;;;;;;;;;;;;;;12.88;69.00;99178.27;1680100;84;20346;-83
2021/10/27 10:11:18;;;;;;;;;;;;;;;12.98;68.91;99176.72;1696119;83;24771;-82
2021/10/27 10:13:45;;;;;;;;;;;;;;;13.07;68.81;99176.55;1703085;83;22818;-81
2021/10/27 10:16:11;;;;;;;;;;;;;;;13.15;68.68;99174.27;1670919;84;26035;-81
2021/10/27 10:18:37;;;;;;;;;;;;;;;13.23;68.52;99167.55;1663398;84;24432;-81
2021/10/27 10:21:03;;;;;;;;;;;;;;;13.26;68.30;99173.05;1707577;83;20459;-85
2021/10/27 10:23:29;;;;;;;;;;;;;;;13.28;68.04;99172.02;1673487;84;24753;-86
2021/10/27 10:25:57;;;;;;;;;;;;;;;13.36;67.90;99168.36;1690966;83;20276;-86
2021/10/27 10:28:25;;;;;;;;;;;;;;;13.45;67.76;99171.32;1686337;83;26000;-82
2021/10/27 10:31:01;;;;;;;;;;;;;;;13.51;67.64;99163.84;1683600;83;24623;-82
2021/10/27 10:33:39;;;;;;;;;;;;;;;13.54;67.45;99162.77;1667276;85;20220;-82
2021/10/27 10:36:09;;;;;;;;;;;;;;;13.55;67.30;99164.46;1680887;83;24173;-82
2021/10/27 11:01:51;;;;;;;;;;;;;;;13.79;65.73;99162.27;1726431;80;20507;-82
2021/10/27 11:24:22;;;;;;;;;;;;;;;14.22;64.61;99140.26;1740173;80;26010;-85
2021/10/27 11:26:59;;;;;;;;;;;;;;;14.29;64.48;99140.66;1727041;82;24090;-85
2021/10/27 11:40:15;;;;;;;;;;;;;;;14.59;64.12;99128.33;1724451;80;24433;-85
2021/10/27 11:42:52;;;;;;;;;;;;;;;14.61;64.00;99127.28;1723321;81;21461;-85
2021/10/27 11:45:22;;;;;;;;;;;;;;;14.65;63.88;99119.50;1727444;80;25514;-85
2021/10/27 11:47:48;;;;;;;;;;;;;;;14.67;63.75;99119.86;1725759;81;22850;-85
2021/10/27 11:50:16;;;;;;;;;;;;;;;14.70;63.63;99122.25;1727801;81;25996;-85
2021/10/27 11:52:42;;;;;;;;;;;;;;;14.69;63.49;99117.45;1728521;80;24443;-85
2021/10/27 11:55:09;;;;;;;;;;;;;;;14.70;63.36;99122.25;1724629;81;20196;-85
2021/10/27 11:57:36;;;;;;;;;;;;;;;14.73;63.19;99122.03;1726950;81;24740;-85
2021/10/27 12:00:06;;;;;;;;;;;;;;;14.71;63.02;99114.72;1724389;81;21983;-85
2021/10/27 12:02:54;;;;;;;;;;;;;;;14.72;62.90;99112.45;1727487;81;26006;-85
2021/10/27 12:05:23;;;;;;;;;;;;;;;14.73;62.74;99108.36;1722835;82;24550;-86
2021/10/27 12:08:14;;;;;;;;;;;;;;;14.74;62.61;99106.56;1726544;81;20207;-85
2021/10/27 12:10:43;;;;;;;;;;;;;;;14.76;62.49;99107.30;1722586;82;24814;-86
2021/10/27 12:13:04;;;;;;;;;;;;;;;14.78;62.42;99110.19;1726033;80;21919;-86
2021/10/27 12:15:51;;;;;;;;;;;;;;;14.81;62.36;99107.31;1713587;81;26104;-86
2021/10/27 12:18:09;;;;;;;;;;;;;;;14.82;62.26;99106.83;1730571;80;25288;-86
2021/10/27 12:20:40;;;;;;;;;;;;;;;14.81;62.11;99106.47;1719490;81;20338;-86
2021/10/27 12:23:07;;;;;;;;;;;;;;;14.78;61.96;99109.35;1719232;81;25667;-85
2021/10/27 12:25:33;;;;;;;;;;;;;;;14.72;61.81;99106.70;1725047;81;22082;-86
2021/10/27 12:28:03;;;;;;;;;;;;;;;14.65;61.67;99106.33;1723930;81;26022;-85
2021/10/27 12:30:30;;;;;;;;;;;;;;;14.64;61.56;99104.64;1722062;79;24814;-86
2021/10/27 12:32:57;;;;;;;;;;;;;;;14.66;61.50;99103.22;1724604;80;20227;-86
2021/10/27 12:35:24;;;;;;;;;;;;;;;14.68;61.44;99100.44;1719186;81;24732;-86
2021/10/27 12:37:54;;;;;;;;;;;;;;;14.71;61.39;99101.07;1722200;81;21928;-86
2021/10/27 12:40:27;;;;;;;;;;;;;;;14.73;61.32;99102.28;1726484;80;25992;-85
2021/10/27 12:42:58;;;;;;;;;;;;;;;14.76;61.28;99099.39;1715245;81;25116;-86
2021/10/27 12:45:31;;;;;;;;;;;;;;;14.79;61.20;99105.73;1716132;81;20643;-86
2021/10/27 12:48:04;;;;;;;;;;;;;;;14.82;61.15;99098.45;1719200;81;24833;-86
2021/10/27 12:50:31;;;;;;;;;;;;;;;14.84;61.09;99095.20;1717931;81;21918;-86
2021/10/27 12:52:58;;;;;;;;;;;;;;;14.88;61.02;99098.47;1719777;82;26195;-86
2021/10/27 12:55:26;;;;;;;;;;;;;;;14.91;60.97;99088.52;1717839;81;25002;-85
2021/10/27 12:57:56;;;;;;;;;;;;;;;14.96;60.87;99088.16;1723404;81;20498;-86
2021/10/27 13:00:44;;;;;;;;;;;;;;;15.00;60.81;99089.11;1715719;81;25626;-86
2021/10/27 13:03:20;;;;;;;;;;;;;;;15.01;60.68;99088.64;1724053;81;21980;-86
2021/10/27 13:05:42;;;;;;;;;;;;;;;14.99;60.52;99086.14;1717322;81;27058;-86
2021/10/27 13:08:20;;;;;;;;;;;;;;;14.98;60.39;99084.93;1728452;82;24451;-85
2021/10/27 13:13:15;;;;;;;;;;;;;;;14.91;60.11;99085.03;1729126;82;24774;-86
2021/10/27 13:15:41;;;;;;;;;;;;;;;14.88;59.95;99086.13;1718787;81;22685;-86
2021/10/27 13:23:35;;;;;;;;;;;;;;;14.81;59.74;99084.91;1720949;81;20608;-85
2021/10/27 13:31:13;;;;;;;;;;;;;;;14.73;59.57;99091.23;1724303;81;25977;-86
2021/10/27 13:33:37;;;;;;;;;;;;;;;14.64;59.46;99090.16;1716866;81;24502;-86
2021/10/27 13:36:03;;;;;;;;;;;;;;;14.60;59.38;99092.66;1721418;81;20333;-86
2021/10/27 13:38:35;;;;;;;;;;;;;;;14.55;59.33;99090.86;1714516;81;25824;-86
2021/10/27 13:41:02;;;;;;;;;;;;;;;14.49;59.29;99089.16;1720816;80;21834;-84
2021/10/27 13:43:38;;;;;;;;;;;;;;;14.43;59.14;99094.87;1699111;83;26075;-84
2021/10/27 13:48:49;;;;;;;;;;;;;;;14.32;59.05;99091.70;1706038;83;20254;-84
2021/10/27 14:05:57;;;;;;;;;;;;;;;14.27;59.20;99088.58;1703059;83;24451;-86
2021/10/27 14:07:27;;;;;;;;;;;;;;;14.12;59.20;99097.14;1704283;83;22796;-86
2021/10/27 14:09:52;;;;;;;;;;;;;;;14.08;59.19;99094.82;1707376;81;26012;-86
2021/10/27 14:15:11;;;;;;;;;;;;;;;14.02;59.23;99091.35;1696111;83;20225;-84
2021/10/27 14:17:30;;;;;;;;;;;;;;;13.97;59.22;99093.45;1708822;82;24859;-84
2021/10/27 15:22:14;;;;;;;;;;;;;;;13.02;60.42;99090.63;1714043;81;20248;-85
2021/10/27 15:24:51;;;;;;;;;;;;;;;12.96;60.49;99087.95;1716683;81;24882;-85
2021/10/27 15:35:18;;;;;;;;;;;;;;;12.67;60.80;99094.35;1724477;81;20164;-85
2021/10/27 15:40:33;;;;;;;;;;;;;;;12.55;61.00;99085.52;1724859;81;21949;-86
2021/10/27 15:43:20;;;;;;;;;;;;;;;12.48;61.10;99076.39;1704750;80;26631;-86
2021/10/27 15:53:01;;;;;;;;;;;;;;;12.33;61.52;99074.80;1710152;83;21998;-85
2021/10/27 15:55:27;;;;;;;;;;;;;;;12.31;61.63;99077.98;1708103;83;26792;-85
2021/10/27 15:57:53;;;;;;;;;;;;;;;12.28;61.73;99082.11;1710268;83;24388;-85
2021/10/27 16:00:22;;;;;;;;;;;;;;;12.20;61.83;99084.41;1711548;82;20276;-85
2021/10/27 16:02:47;;;;;;;;;;;;;;;12.09;61.92;99098.24;1698283;83;24926;-85
2021/10/27 16:05:13;;;;;;;;;;;;;;;12.00;62.01;99094.92;1705636;83;21955;-85
2021/10/27 16:07:42;;;;;;;;;;;;;;;11.95;62.13;99095.19;1703089;83;25929;-85
2021/10/27 16:10:19;;;;;;;;;;;;;;;12.00;62.26;99095.73;1704370;83;25059;-85
2021/10/27 16:12:45;;;;;;;;;;;;;;;12.08;62.39;99101.80;1699824;83;20242;-85
2021/10/27 16:15:16;;;;;;;;;;;;;;;12.20;62.50;99105.41;1708975;82;24857;-85
2021/10/27 16:17:40;;;;;;;;;;;;;;;12.22;62.58;99103.53;1703497;83;21986;-85
2021/10/27 16:20:07;;;;;;;;;;;;;;;12.21;62.66;99106.63;1707232;83;26095;-85
2021/10/27 16:22:34;;;;;;;;;;;;;;;12.18;62.73;99106.81;1701469;83;24487;-85
2021/10/27 16:25:00;;;;;;;;;;;;;;;12.13;62.78;99108.43;1705444;83;20375;-85
2021/10/27 16:27:27;;;;;;;;;;;;;;;12.08;62.86;99109.67;1703457;83;24805;-85
2021/10/27 16:29:53;;;;;;;;;;;;;;;12.06;62.91;99109.77;1710614;82;22659;-85
2021/10/27 16:32:19;;;;;;;;;;;;;;;12.08;62.99;99113.14;1704866;82;21655;-84
2021/10/27 16:34:45;;;;;;;;;;;;;;;12.09;63.05;99112.67;1708560;82;24484;-85
2021/10/27 16:37:11;;;;;;;;;;;;;;;12.00;63.10;99111.47;1706593;82;20293;-85
2021/10/27 16:39:37;;;;;;;;;;;;;;;11.81;63.12;99108.83;1695835;83;25634;-85
2021/10/27 16:42:04;;;;;;;;;;;;;;;11.70;63.16;99103.77;1710967;81;22021;-85
2021/10/27 16:44:30;;;;;;;;;;;;;;;11.67;63.25;99107.07;1733947;81;26190;-85
2021/10/27 16:46:57;;;;;;;;;;;;;;;11.70;63.35;99116.04;1723074;81;24522;-84
2021/10/27 16:49:24;;;;;;;;;;;;;;;11.71;63.47;99116.42;1727039;81;20267;-85
2021/10/27 16:51:50;;;;;;;;;;;;;;;11.72;63.58;99117.64;1725645;81;24182;-85
2021/10/27 16:54:18;;;;;;;;;;;;;;;11.71;63.64;99119.04;1734747;81;22060;-85
2021/10/27 16:56:44;;;;;;;;;;;;;;;11.56;63.70;99120.86;1727552;81;26106;-85
2021/10/27 16:59:10;;;;;;;;;;;;;;;11.52;63.77;99119.81;1723165;81;24391;-85
2021/10/27 17:01:39;;;;;;;;;;;;;;;11.56;63.84;99120.86;1717715;81;20222;-84
2021/10/27 17:04:04;;;;;;;;;;;;;;;11.56;63.93;99125.26;1726378;81;24825;-85
2021/10/27 17:06:33;;;;;;;;;;;;;;;11.52;64.01;99121.97;1727258;81;22722;-85
2021/10/27 17:08:58;;;;;;;;;;;;;;;11.47;64.07;99125.34;1734656;81;25996;-85
2021/10/27 17:11:24;;;;;;;;;;;;;;;11.40;64.15;99124.53;1734420;81;21039;-85